sensor_id;sensor_type;location;lat;lon;timestamp;P1;durP1;ratioP1;P2;durP2;ratioP2
25279;SDS011;13225;47.804;12.116;2023-05-20T00:00:34;23.88;;;15.40;;
25279;SDS011;13225;47.804;12.116;2023-05-20T00:02:59;21.15;;;14.20;;
25279;SDS011;13225;47.804;12.116;2023-05-20T00:05:25;25.25;;;14.60;;
25279;SDS011;13225;47.804;12.116;2023-05-20T00:07:51;20.17;;;14.13;;
25279;SDS011;13225;47.804;12.116;2023-05-20T00:10:16;25.92;;;15.10;;
25279;SDS011;13225;47.804;12.116;2023-05-20T00:12:42;24.23;;;14.90;;
25279;SDS011;13225;47.804;12.116;2023-05-20T00:15:08;24.23;;;15.32;;
25279;SDS011;13225;47.804;12.116;2023-05-20T00:17:35;24.70;;;15.55;;
25279;SDS011;13225;47.804;12.116;2023-05-20T00:20:01;26.77;;;14.88;;
25279;SDS011;13225;47.804;12.116;2023-05-20T00:22:29;19.50;;;13.57;;
25279;SDS011;13225;47.804;12.116;2023-05-20T00:24:54;23.65;;;14.48;;
25279;SDS011;13225;47.804;12.116;2023-05-20T00:27:20;23.88;;;14.90;;
25279;SDS011;13225;47.804;12.116;2023-05-20T00:29:46;23.02;;;14.93;;
25279;SDS011;13225;47.804;12.116;2023-05-20T00:32:11;24.35;;;13.95;;
25279;SDS011;13225;47.804;12.116;2023-05-20T00:34:38;23.02;;;14.52;;
25279;SDS011;13225;47.804;12.116;2023-05-20T00:37:03;24.27;;;15.77;;
25279;SDS011;13225;47.804;12.116;2023-05-20T00:39:29;23.65;;;15.48;;
25279;SDS011;13225;47.804;12.116;2023-05-20T00:41:54;24.95;;;15.30;;
25279;SDS011;13225;47.804;12.116;2023-05-20T00:44:24;22.52;;;14.35;;
25279;SDS011;13225;47.804;12.116;2023-05-20T00:46:50;23.83;;;14.23;;
25279;SDS011;13225;47.804;12.116;2023-05-20T00:49:17;24.73;;;14.75;;
25279;SDS011;13225;47.804;12.116;2023-05-20T00:51:43;22.13;;;13.40;;
25279;SDS011;13225;47.804;12.116;2023-05-20T00:54:08;24.50;;;14.48;;
25279;SDS011;13225;47.804;12.116;2023-05-20T00:56:34;21.00;;;13.90;;
25279;SDS011;13225;47.804;12.116;2023-05-20T00:59:00;22.15;;;13.80;;
25279;SDS011;13225;47.804;12.116;2023-05-20T01:01:26;22.67;;;14.32;;
25279;SDS011;13225;47.804;12.116;2023-05-20T01:03:52;26.48;;;15.30;;
25279;SDS011;13225;47.804;12.116;2023-05-20T01:06:18;26.83;;;15.48;;
25279;SDS011;13225;47.804;12.116;2023-05-20T01:08:43;26.25;;;15.30;;
25279;SDS011;13225;47.804;12.116;2023-05-20T01:11:10;27.85;;;15.93;;
25279;SDS011;13225;47.804;12.116;2023-05-20T01:13:42;22.20;;;14.20;;
25279;SDS011;13225;47.804;12.116;2023-05-20T01:16:11;21.40;;;13.68;;
25279;SDS011;13225;47.804;12.116;2023-05-20T01:18:41;25.90;;;15.02;;
25279;SDS011;13225;47.804;12.116;2023-05-20T01:21:10;23.70;;;14.75;;
25279;SDS011;13225;47.804;12.116;2023-05-20T01:23:39;26.50;;;14.88;;
25279;SDS011;13225;47.804;12.116;2023-05-20T01:26:06;22.88;;;15.38;;
25279;SDS011;13225;47.804;12.116;2023-05-20T01:28:35;21.88;;;13.73;;
25279;SDS011;13225;47.804;12.116;2023-05-20T01:31:03;21.17;;;13.93;;
25279;SDS011;13225;47.804;12.116;2023-05-20T01:33:34;21.58;;;13.30;;
25279;SDS011;13225;47.804;12.116;2023-05-20T01:36:01;24.27;;;13.98;;
25279;SDS011;13225;47.804;12.116;2023-05-20T01:38:27;21.67;;;14.60;;
25279;SDS011;13225;47.804;12.116;2023-05-20T01:40:54;23.85;;;14.68;;
25279;SDS011;13225;47.804;12.116;2023-05-20T01:43:23;24.35;;;14.23;;
25279;SDS011;13225;47.804;12.116;2023-05-20T01:45:50;25.70;;;14.05;;
25279;SDS011;13225;47.804;12.116;2023-05-20T01:48:16;24.55;;;15.05;;
25279;SDS011;13225;47.804;12.116;2023-05-20T01:50:41;24.00;;;14.40;;
25279;SDS011;13225;47.804;12.116;2023-05-20T01:53:07;23.40;;;14.63;;
25279;SDS011;13225;47.804;12.116;2023-05-20T01:55:33;20.50;;;13.88;;
25279;SDS011;13225;47.804;12.116;2023-05-20T01:57:59;22.50;;;13.55;;
25279;SDS011;13225;47.804;12.116;2023-05-20T02:00:25;26.15;;;14.60;;
25279;SDS011;13225;47.804;12.116;2023-05-20T02:02:51;30.65;;;16.52;;
25279;SDS011;13225;47.804;12.116;2023-05-20T02:05:16;26.77;;;15.55;;
25279;SDS011;13225;47.804;12.116;2023-05-20T02:07:42;23.77;;;14.50;;
25279;SDS011;13225;47.804;12.116;2023-05-20T02:10:08;23.10;;;14.25;;
25279;SDS011;13225;47.804;12.116;2023-05-20T02:12:34;24.80;;;14.82;;
25279;SDS011;13225;47.804;12.116;2023-05-20T02:14:59;26.73;;;14.90;;
25279;SDS011;13225;47.804;12.116;2023-05-20T02:17:25;22.90;;;14.52;;
25279;SDS011;13225;47.804;12.116;2023-05-20T02:19:50;23.13;;;14.38;;
25279;SDS011;13225;47.804;12.116;2023-05-20T02:22:16;21.17;;;14.45;;
25279;SDS011;13225;47.804;12.116;2023-05-20T02:24:42;25.63;;;14.60;;
25279;SDS011;13225;47.804;12.116;2023-05-20T02:27:08;23.23;;;13.48;;
25279;SDS011;13225;47.804;12.116;2023-05-20T02:29:33;19.40;;;12.70;;
25279;SDS011;13225;47.804;12.116;2023-05-20T02:31:59;22.60;;;13.98;;
25279;SDS011;13225;47.804;12.116;2023-05-20T02:34:25;22.30;;;14.20;;
25279;SDS011;13225;47.804;12.116;2023-05-20T02:36:51;21.17;;;14.13;;
25279;SDS011;13225;47.804;12.116;2023-05-20T02:39:18;23.85;;;14.45;;
25279;SDS011;13225;47.804;12.116;2023-05-20T02:41:43;23.77;;;14.50;;
25279;SDS011;13225;47.804;12.116;2023-05-20T02:44:09;24.05;;;14.75;;
25279;SDS011;13225;47.804;12.116;2023-05-20T02:46:35;26.83;;;14.38;;
25279;SDS011;13225;47.804;12.116;2023-05-20T02:49:00;27.77;;;15.25;;
25279;SDS011;13225;47.804;12.116;2023-05-20T02:51:26;24.75;;;14.60;;
25279;SDS011;13225;47.804;12.116;2023-05-20T02:53:51;23.38;;;14.30;;
25279;SDS011;13225;47.804;12.116;2023-05-20T02:56:17;23.40;;;14.18;;
25279;SDS011;13225;47.804;12.116;2023-05-20T02:58:45;24.80;;;14.25;;
25279;SDS011;13225;47.804;12.116;2023-05-20T03:01:11;26.17;;;14.75;;
25279;SDS011;13225;47.804;12.116;2023-05-20T03:03:37;24.90;;;15.00;;
25279;SDS011;13225;47.804;12.116;2023-05-20T03:06:04;23.15;;;14.63;;
25279;SDS011;13225;47.804;12.116;2023-05-20T03:08:31;25.20;;;14.60;;
25279;SDS011;13225;47.804;12.116;2023-05-20T03:11:00;25.52;;;15.00;;
25279;SDS011;13225;47.804;12.116;2023-05-20T03:13:26;25.45;;;14.90;;
25279;SDS011;13225;47.804;12.116;2023-05-20T03:15:52;23.73;;;14.63;;
25279;SDS011;13225;47.804;12.116;2023-05-20T03:18:18;22.30;;;13.30;;
25279;SDS011;13225;47.804;12.116;2023-05-20T03:20:44;24.25;;;13.40;;
25279;SDS011;13225;47.804;12.116;2023-05-20T03:23:10;22.23;;;13.57;;
25279;SDS011;13225;47.804;12.116;2023-05-20T03:25:36;20.00;;;13.23;;
25279;SDS011;13225;47.804;12.116;2023-05-20T03:28:03;22.25;;;13.40;;
25279;SDS011;13225;47.804;12.116;2023-05-20T03:30:30;27.52;;;14.10;;
25279;SDS011;13225;47.804;12.116;2023-05-20T03:32:56;23.38;;;14.07;;
25279;SDS011;13225;47.804;12.116;2023-05-20T03:35:22;23.80;;;14.05;;
25279;SDS011;13225;47.804;12.116;2023-05-20T03:37:48;24.50;;;13.90;;
25279;SDS011;13225;47.804;12.116;2023-05-20T03:40:15;23.40;;;13.93;;
25279;SDS011;13225;47.804;12.116;2023-05-20T03:42:41;24.25;;;14.45;;
25279;SDS011;13225;47.804;12.116;2023-05-20T03:45:07;25.67;;;15.00;;
25279;SDS011;13225;47.804;12.116;2023-05-20T03:47:33;25.70;;;14.88;;
25279;SDS011;13225;47.804;12.116;2023-05-20T03:49:58;25.80;;;15.05;;
25279;SDS011;13225;47.804;12.116;2023-05-20T03:52:24;22.25;;;13.95;;
25279;SDS011;13225;47.804;12.116;2023-05-20T03:54:50;22.27;;;13.90;;
25279;SDS011;13225;47.804;12.116;2023-05-20T03:57:16;19.63;;;12.93;;
25279;SDS011;13225;47.804;12.116;2023-05-20T03:59:41;19.02;;;12.35;;
25279;SDS011;13225;47.804;12.116;2023-05-20T04:02:07;19.35;;;12.48;;
25279;SDS011;13225;47.804;12.116;2023-05-20T04:04:33;19.45;;;12.45;;
25279;SDS011;13225;47.804;12.116;2023-05-20T04:06:59;19.95;;;12.68;;
25279;SDS011;13225;47.804;12.116;2023-05-20T04:09:25;17.65;;;12.07;;
25279;SDS011;13225;47.804;12.116;2023-05-20T04:11:50;23.90;;;15.77;;
25279;SDS011;13225;47.804;12.116;2023-05-20T04:14:16;25.80;;;15.55;;
25279;SDS011;13225;47.804;12.116;2023-05-20T04:16:42;19.05;;;12.13;;
25279;SDS011;13225;47.804;12.116;2023-05-20T04:19:09;20.63;;;12.75;;
25279;SDS011;13225;47.804;12.116;2023-05-20T04:21:34;18.95;;;12.15;;
25279;SDS011;13225;47.804;12.116;2023-05-20T04:24:00;18.30;;;11.65;;
25279;SDS011;13225;47.804;12.116;2023-05-20T04:26:26;20.30;;;11.77;;
25279;SDS011;13225;47.804;12.116;2023-05-20T04:28:51;20.88;;;12.73;;
25279;SDS011;13225;47.804;12.116;2023-05-20T04:31:17;18.67;;;12.10;;
25279;SDS011;13225;47.804;12.116;2023-05-20T04:33:44;19.35;;;12.57;;
25279;SDS011;13225;47.804;12.116;2023-05-20T04:36:10;17.92;;;12.00;;
25279;SDS011;13225;47.804;12.116;2023-05-20T04:38:40;18.33;;;11.60;;
25279;SDS011;13225;47.804;12.116;2023-05-20T04:41:06;20.50;;;12.65;;
25279;SDS011;13225;47.804;12.116;2023-05-20T04:43:32;21.13;;;13.05;;
25279;SDS011;13225;47.804;12.116;2023-05-20T04:45:58;18.67;;;11.40;;
25279;SDS011;13225;47.804;12.116;2023-05-20T04:48:25;16.58;;;11.55;;
25279;SDS011;13225;47.804;12.116;2023-05-20T04:50:51;18.85;;;12.00;;
25279;SDS011;13225;47.804;12.116;2023-05-20T04:53:17;19.65;;;12.00;;
25279;SDS011;13225;47.804;12.116;2023-05-20T04:55:44;20.08;;;12.38;;
25279;SDS011;13225;47.804;12.116;2023-05-20T04:58:10;26.08;;;13.48;;
25279;SDS011;13225;47.804;12.116;2023-05-20T05:00:42;24.80;;;12.45;;
25279;SDS011;13225;47.804;12.116;2023-05-20T05:03:08;30.63;;;15.43;;
25279;SDS011;13225;47.804;12.116;2023-05-20T05:05:34;26.48;;;14.82;;
25279;SDS011;13225;47.804;12.116;2023-05-20T05:08:01;28.73;;;15.15;;
25279;SDS011;13225;47.804;12.116;2023-05-20T05:10:28;27.48;;;14.63;;
25279;SDS011;13225;47.804;12.116;2023-05-20T05:12:53;30.58;;;16.10;;
25279;SDS011;13225;47.804;12.116;2023-05-20T05:15:19;38.28;;;16.77;;
25279;SDS011;13225;47.804;12.116;2023-05-20T05:17:45;41.83;;;19.85;;
25279;SDS011;13225;47.804;12.116;2023-05-20T05:20:11;41.80;;;18.13;;
25279;SDS011;13225;47.804;12.116;2023-05-20T05:22:36;37.05;;;18.60;;
25279;SDS011;13225;47.804;12.116;2023-05-20T05:25:04;39.00;;;18.60;;
25279;SDS011;13225;47.804;12.116;2023-05-20T05:27:30;44.28;;;20.27;;
25279;SDS011;13225;47.804;12.116;2023-05-20T05:29:56;50.30;;;19.42;;
25279;SDS011;13225;47.804;12.116;2023-05-20T05:32:22;64.30;;;29.95;;
25279;SDS011;13225;47.804;12.116;2023-05-20T05:34:47;42.63;;;18.50;;
25279;SDS011;13225;47.804;12.116;2023-05-20T05:37:13;43.80;;;18.63;;
25279;SDS011;13225;47.804;12.116;2023-05-20T05:39:38;37.25;;;18.55;;
25279;SDS011;13225;47.804;12.116;2023-05-20T05:42:04;36.13;;;18.73;;
25279;SDS011;13225;47.804;12.116;2023-05-20T05:44:30;36.22;;;18.50;;
25279;SDS011;13225;47.804;12.116;2023-05-20T05:46:55;36.72;;;18.90;;
25279;SDS011;13225;47.804;12.116;2023-05-20T05:49:21;34.92;;;16.83;;
25279;SDS011;13225;47.804;12.116;2023-05-20T05:51:47;29.63;;;17.30;;
25279;SDS011;13225;47.804;12.116;2023-05-20T05:54:12;31.35;;;17.98;;
25279;SDS011;13225;47.804;12.116;2023-05-20T05:56:38;28.45;;;16.58;;
25279;SDS011;13225;47.804;12.116;2023-05-20T05:59:03;30.25;;;17.02;;
25279;SDS011;13225;47.804;12.116;2023-05-20T06:01:29;27.80;;;15.65;;
25279;SDS011;13225;47.804;12.116;2023-05-20T06:03:55;31.17;;;17.95;;
25279;SDS011;13225;47.804;12.116;2023-05-20T06:06:20;29.05;;;16.98;;
25279;SDS011;13225;47.804;12.116;2023-05-20T06:08:46;28.25;;;16.58;;
25279;SDS011;13225;47.804;12.116;2023-05-20T06:11:12;26.10;;;15.40;;
25279;SDS011;13225;47.804;12.116;2023-05-20T06:13:37;23.58;;;14.10;;
25279;SDS011;13225;47.804;12.116;2023-05-20T06:16:03;24.35;;;14.68;;
25279;SDS011;13225;47.804;12.116;2023-05-20T06:18:29;28.00;;;15.90;;
25279;SDS011;13225;47.804;12.116;2023-05-20T06:20:55;24.20;;;14.80;;
25279;SDS011;13225;47.804;12.116;2023-05-20T06:23:21;27.73;;;15.95;;
25279;SDS011;13225;47.804;12.116;2023-05-20T06:25:47;27.50;;;16.17;;
25279;SDS011;13225;47.804;12.116;2023-05-20T06:28:13;25.90;;;15.43;;
25279;SDS011;13225;47.804;12.116;2023-05-20T06:30:39;29.48;;;16.17;;
25279;SDS011;13225;47.804;12.116;2023-05-20T06:33:05;27.55;;;16.10;;
25279;SDS011;13225;47.804;12.116;2023-05-20T06:35:31;28.17;;;16.17;;
25279;SDS011;13225;47.804;12.116;2023-05-20T06:37:58;26.80;;;16.40;;
25279;SDS011;13225;47.804;12.116;2023-05-20T06:40:25;36.90;;;17.05;;
25279;SDS011;13225;47.804;12.116;2023-05-20T06:42:51;27.23;;;15.18;;
25279;SDS011;13225;47.804;12.116;2023-05-20T06:45:17;22.15;;;13.73;;
25279;SDS011;13225;47.804;12.116;2023-05-20T06:47:43;25.20;;;15.07;;
25279;SDS011;13225;47.804;12.116;2023-05-20T06:50:09;24.52;;;13.85;;
25279;SDS011;13225;47.804;12.116;2023-05-20T06:52:35;24.55;;;14.27;;
25279;SDS011;13225;47.804;12.116;2023-05-20T06:55:00;27.67;;;16.10;;
25279;SDS011;13225;47.804;12.116;2023-05-20T06:57:27;28.83;;;16.67;;
25279;SDS011;13225;47.804;12.116;2023-05-20T06:59:53;28.23;;;16.35;;
25279;SDS011;13225;47.804;12.116;2023-05-20T07:02:18;27.92;;;15.70;;
25279;SDS011;13225;47.804;12.116;2023-05-20T07:04:45;23.67;;;15.13;;
25279;SDS011;13225;47.804;12.116;2023-05-20T07:07:10;28.05;;;15.82;;
25279;SDS011;13225;47.804;12.116;2023-05-20T07:09:36;28.02;;;16.67;;
25279;SDS011;13225;47.804;12.116;2023-05-20T07:12:01;28.42;;;15.60;;
25279;SDS011;13225;47.804;12.116;2023-05-20T07:14:27;27.48;;;15.30;;
25279;SDS011;13225;47.804;12.116;2023-05-20T07:16:53;28.52;;;16.88;;
25279;SDS011;13225;47.804;12.116;2023-05-20T07:19:18;28.25;;;15.25;;
25279;SDS011;13225;47.804;12.116;2023-05-20T07:21:44;33.15;;;18.50;;
25279;SDS011;13225;47.804;12.116;2023-05-20T07:24:09;38.17;;;19.85;;
25279;SDS011;13225;47.804;12.116;2023-05-20T07:26:35;31.15;;;17.98;;
25279;SDS011;13225;47.804;12.116;2023-05-20T07:29:04;32.95;;;19.75;;
25279;SDS011;13225;47.804;12.116;2023-05-20T07:31:30;37.95;;;20.00;;
25279;SDS011;13225;47.804;12.116;2023-05-20T07:33:56;38.50;;;21.38;;
25279;SDS011;13225;47.804;12.116;2023-05-20T07:36:21;39.50;;;22.25;;
25279;SDS011;13225;47.804;12.116;2023-05-20T07:38:47;42.88;;;23.60;;
25279;SDS011;13225;47.804;12.116;2023-05-20T07:41:13;37.78;;;21.13;;
25279;SDS011;13225;47.804;12.116;2023-05-20T07:43:38;37.65;;;21.27;;
25279;SDS011;13225;47.804;12.116;2023-05-20T07:46:04;37.83;;;22.40;;
25279;SDS011;13225;47.804;12.116;2023-05-20T07:48:30;34.25;;;20.42;;
25279;SDS011;13225;47.804;12.116;2023-05-20T07:50:55;30.48;;;18.50;;
25279;SDS011;13225;47.804;12.116;2023-05-20T07:53:23;35.75;;;21.30;;
25279;SDS011;13225;47.804;12.116;2023-05-20T07:55:49;30.90;;;19.25;;
25279;SDS011;13225;47.804;12.116;2023-05-20T07:58:15;30.30;;;19.10;;
25279;SDS011;13225;47.804;12.116;2023-05-20T08:00:40;32.13;;;19.33;;
25279;SDS011;13225;47.804;12.116;2023-05-20T08:03:06;32.22;;;19.63;;
25279;SDS011;13225;47.804;12.116;2023-05-20T08:05:32;33.17;;;18.85;;
25279;SDS011;13225;47.804;12.116;2023-05-20T08:08:00;30.52;;;19.08;;
25279;SDS011;13225;47.804;12.116;2023-05-20T08:10:25;35.17;;;20.13;;
25279;SDS011;13225;47.804;12.116;2023-05-20T08:12:51;31.42;;;19.63;;
25279;SDS011;13225;47.804;12.116;2023-05-20T08:15:17;35.75;;;20.33;;
25279;SDS011;13225;47.804;12.116;2023-05-20T08:17:43;28.60;;;18.40;;
25279;SDS011;13225;47.804;12.116;2023-05-20T08:20:08;26.02;;;17.27;;
25279;SDS011;13225;47.804;12.116;2023-05-20T08:22:36;26.42;;;16.17;;
25279;SDS011;13225;47.804;12.116;2023-05-20T08:25:02;23.60;;;14.02;;
25279;SDS011;13225;47.804;12.116;2023-05-20T08:27:28;28.83;;;17.45;;
25279;SDS011;13225;47.804;12.116;2023-05-20T08:29:54;27.02;;;16.98;;
25279;SDS011;13225;47.804;12.116;2023-05-20T08:32:20;24.38;;;16.15;;
25279;SDS011;13225;47.804;12.116;2023-05-20T08:34:45;22.23;;;14.77;;
25279;SDS011;13225;47.804;12.116;2023-05-20T08:37:13;23.27;;;15.48;;
25279;SDS011;13225;47.804;12.116;2023-05-20T08:39:38;22.58;;;14.95;;
25279;SDS011;13225;47.804;12.116;2023-05-20T08:42:04;24.00;;;15.63;;
25279;SDS011;13225;47.804;12.116;2023-05-20T08:44:31;22.33;;;14.80;;
25279;SDS011;13225;47.804;12.116;2023-05-20T08:46:58;20.67;;;14.57;;
25279;SDS011;13225;47.804;12.116;2023-05-20T08:49:23;21.70;;;15.15;;
25279;SDS011;13225;47.804;12.116;2023-05-20T08:51:49;25.75;;;16.42;;
25279;SDS011;13225;47.804;12.116;2023-05-20T08:54:15;23.75;;;15.02;;
25279;SDS011;13225;47.804;12.116;2023-05-20T08:56:42;20.65;;;13.93;;
25279;SDS011;13225;47.804;12.116;2023-05-20T08:59:08;21.40;;;13.38;;
25279;SDS011;13225;47.804;12.116;2023-05-20T09:01:35;20.70;;;14.15;;
25279;SDS011;13225;47.804;12.116;2023-05-20T09:04:05;25.02;;;17.20;;
25279;SDS011;13225;47.804;12.116;2023-05-20T09:06:41;22.40;;;16.25;;
25279;SDS011;13225;47.804;12.116;2023-05-20T09:09:09;18.77;;;12.90;;
25279;SDS011;13225;47.804;12.116;2023-05-20T09:11:35;18.45;;;13.32;;
25279;SDS011;13225;47.804;12.116;2023-05-20T09:14:01;16.08;;;10.90;;
25279;SDS011;13225;47.804;12.116;2023-05-20T09:16:27;18.17;;;13.13;;
25279;SDS011;13225;47.804;12.116;2023-05-20T09:18:56;14.13;;;10.20;;
25279;SDS011;13225;47.804;12.116;2023-05-20T09:21:25;11.95;;;7.93;;
25279;SDS011;13225;47.804;12.116;2023-05-20T09:23:52;11.07;;;7.85;;
25279;SDS011;13225;47.804;12.116;2023-05-20T09:26:18;8.02;;;7.07;;
25279;SDS011;13225;47.804;12.116;2023-05-20T09:28:44;8.13;;;6.07;;
25279;SDS011;13225;47.804;12.116;2023-05-20T09:31:12;8.98;;;6.00;;
25279;SDS011;13225;47.804;12.116;2023-05-20T09:33:38;9.52;;;6.60;;
25279;SDS011;13225;47.804;12.116;2023-05-20T09:36:08;10.45;;;6.40;;
25279;SDS011;13225;47.804;12.116;2023-05-20T09:38:37;7.95;;;6.63;;
25279;SDS011;13225;47.804;12.116;2023-05-20T09:41:22;6.82;;;5.97;;
25279;SDS011;13225;47.804;12.116;2023-05-20T09:43:50;8.57;;;6.18;;
25279;SDS011;13225;47.804;12.116;2023-05-20T09:46:18;10.25;;;6.57;;
25279;SDS011;13225;47.804;12.116;2023-05-20T09:48:45;6.97;;;5.80;;
25279;SDS011;13225;47.804;12.116;2023-05-20T09:51:10;9.27;;;6.63;;
25279;SDS011;13225;47.804;12.116;2023-05-20T09:53:37;7.20;;;6.18;;
25279;SDS011;13225;47.804;12.116;2023-05-20T09:56:03;8.45;;;5.80;;
25279;SDS011;13225;47.804;12.116;2023-05-20T09:58:29;6.75;;;6.05;;
25279;SDS011;13225;47.804;12.116;2023-05-20T10:00:55;6.85;;;5.85;;
25279;SDS011;13225;47.804;12.116;2023-05-20T10:03:21;7.50;;;5.68;;
25279;SDS011;13225;47.804;12.116;2023-05-20T10:14:25;5.80;;;5.03;;
25279;SDS011;13225;47.804;12.116;2023-05-20T10:17:09;6.57;;;4.80;;
25279;SDS011;13225;47.804;12.116;2023-05-20T10:19:41;5.75;;;4.82;;
25279;SDS011;13225;47.804;12.116;2023-05-20T10:22:08;5.93;;;4.47;;
25279;SDS011;13225;47.804;12.116;2023-05-20T10:24:35;5.47;;;4.60;;
25279;SDS011;13225;47.804;12.116;2023-05-20T10:27:03;4.78;;;4.18;;
25279;SDS011;13225;47.804;12.116;2023-05-20T10:32:24;4.65;;;4.15;;
25279;SDS011;13225;47.804;12.116;2023-05-20T10:34:49;5.00;;;4.18;;
25279;SDS011;13225;47.804;12.116;2023-05-20T10:37:22;4.68;;;4.28;;
25279;SDS011;13225;47.804;12.116;2023-05-20T10:39:50;6.30;;;4.25;;
25279;SDS011;13225;47.804;12.116;2023-05-20T10:42:16;4.35;;;3.95;;
25279;SDS011;13225;47.804;12.116;2023-05-20T10:44:52;5.10;;;3.80;;
25279;SDS011;13225;47.804;12.116;2023-05-20T10:47:18;4.03;;;3.63;;
25279;SDS011;13225;47.804;12.116;2023-05-20T10:49:44;5.38;;;4.07;;
25279;SDS011;13225;47.804;12.116;2023-05-20T10:52:10;4.88;;;4.25;;
25279;SDS011;13225;47.804;12.116;2023-05-20T10:57:20;4.50;;;4.07;;
25279;SDS011;13225;47.804;12.116;2023-05-20T10:59:46;4.10;;;3.75;;
25279;SDS011;13225;47.804;12.116;2023-05-20T11:02:14;5.28;;;3.92;;
25279;SDS011;13225;47.804;12.116;2023-05-20T11:04:44;6.45;;;4.15;;
25279;SDS011;13225;47.804;12.116;2023-05-20T11:07:10;5.70;;;4.47;;
25279;SDS011;13225;47.804;12.116;2023-05-20T11:09:36;5.45;;;3.95;;
25279;SDS011;13225;47.804;12.116;2023-05-20T11:12:02;4.55;;;3.80;;
25279;SDS011;13225;47.804;12.116;2023-05-20T11:14:28;8.38;;;4.35;;
25279;SDS011;13225;47.804;12.116;2023-05-20T11:16:57;4.13;;;3.30;;
25279;SDS011;13225;47.804;12.116;2023-05-20T11:19:24;3.70;;;3.40;;
25279;SDS011;13225;47.804;12.116;2023-05-20T11:21:50;4.07;;;3.67;;
25279;SDS011;13225;47.804;12.116;2023-05-20T11:24:24;4.05;;;3.63;;
25279;SDS011;13225;47.804;12.116;2023-05-20T11:26:51;3.50;;;3.20;;
25279;SDS011;13225;47.804;12.116;2023-05-20T11:29:18;3.70;;;2.97;;
25279;SDS011;13225;47.804;12.116;2023-05-20T11:31:46;3.05;;;2.75;;
25279;SDS011;13225;47.804;12.116;2023-05-20T11:34:13;3.40;;;3.00;;
25279;SDS011;13225;47.804;12.116;2023-05-20T11:36:40;3.58;;;3.17;;
25279;SDS011;13225;47.804;12.116;2023-05-20T11:39:09;4.47;;;3.65;;
25279;SDS011;13225;47.804;12.116;2023-05-20T11:41:36;3.15;;;2.90;;
25279;SDS011;13225;47.804;12.116;2023-05-20T11:44:03;4.38;;;3.13;;
25279;SDS011;13225;47.804;12.116;2023-05-20T11:46:29;6.13;;;3.30;;
25279;SDS011;13225;47.804;12.116;2023-05-20T11:48:55;3.40;;;3.10;;
25279;SDS011;13225;47.804;12.116;2023-05-20T11:51:30;4.35;;;3.17;;
25279;SDS011;13225;47.804;12.116;2023-05-20T11:54:00;3.70;;;3.30;;
25279;SDS011;13225;47.804;12.116;2023-05-20T11:56:29;4.00;;;3.15;;
25279;SDS011;13225;47.804;12.116;2023-05-20T11:58:59;3.83;;;3.50;;
25279;SDS011;13225;47.804;12.116;2023-05-20T12:01:25;4.18;;;3.55;;
25279;SDS011;13225;47.804;12.116;2023-05-20T12:03:53;6.15;;;4.68;;
25279;SDS011;13225;47.804;12.116;2023-05-20T12:06:19;5.88;;;5.03;;
25279;SDS011;13225;47.804;12.116;2023-05-20T12:08:45;6.03;;;4.53;;
25279;SDS011;13225;47.804;12.116;2023-05-20T12:11:11;5.55;;;4.60;;
25279;SDS011;13225;47.804;12.116;2023-05-20T12:13:37;5.03;;;3.78;;
25279;SDS011;13225;47.804;12.116;2023-05-20T12:16:04;4.50;;;4.05;;
25279;SDS011;13225;47.804;12.116;2023-05-20T12:18:30;3.95;;;3.53;;
25279;SDS011;13225;47.804;12.116;2023-05-20T12:20:56;5.03;;;3.55;;
25279;SDS011;13225;47.804;12.116;2023-05-20T12:23:25;5.65;;;3.80;;
25279;SDS011;13225;47.804;12.116;2023-05-20T12:25:51;5.70;;;4.25;;
25279;SDS011;13225;47.804;12.116;2023-05-20T12:28:16;6.20;;;4.38;;
25279;SDS011;13225;47.804;12.116;2023-05-20T12:30:42;5.05;;;3.35;;
25279;SDS011;13225;47.804;12.116;2023-05-20T12:33:08;6.90;;;3.97;;
25279;SDS011;13225;47.804;12.116;2023-05-20T12:35:37;5.30;;;4.40;;
25279;SDS011;13225;47.804;12.116;2023-05-20T12:38:04;4.82;;;4.28;;
25279;SDS011;13225;47.804;12.116;2023-05-20T12:40:31;4.70;;;4.20;;
25279;SDS011;13225;47.804;12.116;2023-05-20T12:42:56;4.85;;;4.35;;
25279;SDS011;13225;47.804;12.116;2023-05-20T12:45:23;6.72;;;4.78;;
25279;SDS011;13225;47.804;12.116;2023-05-20T12:47:48;7.35;;;4.90;;
25279;SDS011;13225;47.804;12.116;2023-05-20T12:50:15;5.63;;;4.65;;
25279;SDS011;13225;47.804;12.116;2023-05-20T12:52:40;7.03;;;5.32;;
25279;SDS011;13225;47.804;12.116;2023-05-20T12:55:06;6.55;;;4.20;;
25279;SDS011;13225;47.804;12.116;2023-05-20T12:57:37;5.38;;;4.35;;
25279;SDS011;13225;47.804;12.116;2023-05-20T13:00:12;6.32;;;4.18;;
25279;SDS011;13225;47.804;12.116;2023-05-20T13:02:40;5.53;;;4.55;;
25279;SDS011;13225;47.804;12.116;2023-05-20T13:05:06;5.75;;;4.60;;
25279;SDS011;13225;47.804;12.116;2023-05-20T13:07:32;6.07;;;4.97;;
25279;SDS011;13225;47.804;12.116;2023-05-20T13:09:58;6.63;;;5.03;;
25279;SDS011;13225;47.804;12.116;2023-05-20T13:12:24;5.85;;;4.60;;
25279;SDS011;13225;47.804;12.116;2023-05-20T13:14:49;5.78;;;4.10;;
25279;SDS011;13225;47.804;12.116;2023-05-20T13:17:16;5.53;;;4.47;;
25279;SDS011;13225;47.804;12.116;2023-05-20T13:19:42;5.47;;;4.60;;
25279;SDS011;13225;47.804;12.116;2023-05-20T13:22:09;4.70;;;4.07;;
25279;SDS011;13225;47.804;12.116;2023-05-20T13:24:35;5.53;;;4.40;;
25279;SDS011;13225;47.804;12.116;2023-05-20T13:27:01;5.97;;;4.80;;
25279;SDS011;13225;47.804;12.116;2023-05-20T13:29:27;4.53;;;3.83;;
25279;SDS011;13225;47.804;12.116;2023-05-20T13:31:52;5.20;;;4.07;;
25279;SDS011;13225;47.804;12.116;2023-05-20T13:34:18;5.32;;;4.28;;
25279;SDS011;13225;47.804;12.116;2023-05-20T13:36:44;6.93;;;4.78;;
25279;SDS011;13225;47.804;12.116;2023-05-20T13:39:11;6.53;;;4.10;;
25279;SDS011;13225;47.804;12.116;2023-05-20T13:41:38;6.25;;;4.28;;
25279;SDS011;13225;47.804;12.116;2023-05-20T13:44:03;6.15;;;4.20;;
25279;SDS011;13225;47.804;12.116;2023-05-20T13:46:29;5.80;;;4.40;;
25279;SDS011;13225;47.804;12.116;2023-05-20T13:48:54;4.70;;;4.13;;
25279;SDS011;13225;47.804;12.116;2023-05-20T13:51:20;5.97;;;4.32;;
25279;SDS011;13225;47.804;12.116;2023-05-20T13:53:46;4.35;;;3.83;;
25279;SDS011;13225;47.804;12.116;2023-05-20T13:56:11;5.03;;;4.03;;
25279;SDS011;13225;47.804;12.116;2023-05-20T13:58:37;3.92;;;3.42;;
25279;SDS011;13225;47.804;12.116;2023-05-20T14:01:03;4.82;;;4.13;;
25279;SDS011;13225;47.804;12.116;2023-05-20T14:03:29;6.00;;;3.53;;
25279;SDS011;13225;47.804;12.116;2023-05-20T14:05:56;6.45;;;4.15;;
25279;SDS011;13225;47.804;12.116;2023-05-20T14:08:22;3.88;;;3.58;;
25279;SDS011;13225;47.804;12.116;2023-05-20T14:10:48;5.15;;;3.70;;
25279;SDS011;13225;47.804;12.116;2023-05-20T14:13:16;3.80;;;3.40;;
25279;SDS011;13225;47.804;12.116;2023-05-20T14:15:41;3.97;;;3.67;;
25279;SDS011;13225;47.804;12.116;2023-05-20T14:18:07;3.47;;;3.17;;
25279;SDS011;13225;47.804;12.116;2023-05-20T14:20:32;4.75;;;3.47;;
25279;SDS011;13225;47.804;12.116;2023-05-20T14:22:58;6.60;;;3.72;;
25279;SDS011;13225;47.804;12.116;2023-05-20T14:25:25;4.28;;;3.47;;
25279;SDS011;13225;47.804;12.116;2023-05-20T14:27:51;3.90;;;3.60;;